Jump to content

  •  

HORIZON AIRLINES FLIGHT QX2192 FLOWN ON 01-10-2018 BY CAPTAIN TYLER HANUS

Pilot StatsCaptain Tyler Hanus (LDP525) • 294.2 total hours • 82 total flights [View Logbook]
FLIGHT DETAILS
StatusReceived and approved on 2018-01-10 at 18:01:53
Origin AirportSeattle-Tacoma Intl (KSEA) • Seattle, Washington, United States (433 feet MSL)
Filed Flight PlanKSEA NORMY J12 BLUIT J90 MWH J34 ODESS KGEG
Destination AirportSpokane Intl (KGEG) • Spokane, Washington, United States (2,371 feet MSL)
Alternate AirportSeattle-Tacoma Intl (KSEA) • Seattle, Washington, United States (433 feet MSL)
AirlineHorizon Airlines
AircraftDe Havilland DHC-8-400 Dash 8/8Q (DH4 / DHC-8-400)
FS Aircraft UsedMJC8Q400_QXE
Cruising AltitudeFL230
Distance Flown194 nautical miles
Passengers Onboard54 passengers (77.14% full)
DEPARTURE DETAILS
Time Out14:02:03
Taxi Data59,896 lbs total with 7,206 lbs of fuel onboard
Takeoff Data14:11:33 (10 minutes after leaving gate/ramp) • 59,737 lbs total • 19° pitch at 139 knots
Departure METARKSEA 102122Z 21009KT 10SM -RA BKN014 BKN020 OVC050 07/04 A3002 RMK AO2 RAB06 P0000 T00720039
ARRIVAL DETAILS
Landing Data15:02:19 • 57,910 lbs total • 19° pitch doing 109 knots at a rate of -211.46 feet/minute with 5,123 lbs of fuel onboard
Time In15:07:53 (6 minutes after landing)
Ramp Weight57,814 lbs total
Total Fuel Used2,083 lbs
Total Block Time01:04:55 (1.1 hours) while 15 minutes were spent on the ground
Arrival METARKGEG 102253Z 23011KT 10SM FEW025 FEW110 FEW200 02/M01 A2990 RMK AO2 SLP142 T00221006
MISCELLANEOUS DETAILS
LiveDISPATCH Version4.8.3.1
FS Version
FSUIPC Version4.97
OS VersionWindows 7 32-bit
Screen Resolution1360 x 768
Pilot's CommentsNo Comments Reported
FLIGHT MAP